sensor_id;sensor_type;location;lat;lon;timestamp;pressure;altitude;pressure_sealevel;temperature;humidity
27729;BME280;15126;42.186;24.340;2023-08-30T00:02:24;98133.66;;;23.78;68.92
27729;BME280;15126;42.186;24.340;2023-08-30T00:04:51;98133.44;;;23.76;69.62
27729;BME280;15126;42.186;24.340;2023-08-30T00:07:18;98118.22;;;23.73;69.91
27729;BME280;15126;42.186;24.340;2023-08-30T00:09:45;98113.84;;;23.72;69.87
27729;BME280;15126;42.186;24.340;2023-08-30T00:12:13;98121.84;;;23.74;69.24
27729;BME280;15126;42.186;24.340;2023-08-30T00:14:39;98119.53;;;23.72;69.45
27729;BME280;15126;42.186;24.340;2023-08-30T00:17:06;98113.63;;;23.70;69.87
27729;BME280;15126;42.186;24.340;2023-08-30T00:19:33;98102.78;;;23.68;69.44
27729;BME280;15126;42.186;24.340;2023-08-30T00:22:00;98106.19;;;23.67;69.08
27729;BME280;15126;42.186;24.340;2023-08-30T00:24:27;98105.66;;;23.55;69.31
27729;BME280;15126;42.186;24.340;2023-08-30T00:26:54;98109.47;;;23.58;68.95
27729;BME280;15126;42.186;24.340;2023-08-30T00:29:22;98106.97;;;23.54;68.79
27729;BME280;15126;42.186;24.340;2023-08-30T00:31:49;98110.13;;;23.51;68.25
27729;BME280;15126;42.186;24.340;2023-08-30T00:34:15;98114.84;;;23.48;68.60
27729;BME280;15126;42.186;24.340;2023-08-30T00:36:42;98114.22;;;23.42;69.47
27729;BME280;15126;42.186;24.340;2023-08-30T00:39:09;98119.44;;;23.38;68.90
27729;BME280;15126;42.186;24.340;2023-08-30T00:41:36;98122.81;;;23.37;69.86
27729;BME280;15126;42.186;24.340;2023-08-30T00:44:03;98119.22;;;23.36;69.07
27729;BME280;15126;42.186;24.340;2023-08-30T00:46:31;98123.06;;;23.39;68.30
27729;BME280;15126;42.186;24.340;2023-08-30T00:48:59;98127.75;;;23.36;69.64
27729;BME280;15126;42.186;24.340;2023-08-30T00:51:27;98129.06;;;23.35;69.41
27729;BME280;15126;42.186;24.340;2023-08-30T00:53:54;98132.66;;;23.36;68.35
27729;BME280;15126;42.186;24.340;2023-08-30T00:56:21;98112.09;;;23.30;68.31
27729;BME280;15126;42.186;24.340;2023-08-30T00:58:49;98128.84;;;23.33;68.71
27729;BME280;15126;42.186;24.340;2023-08-30T01:01:16;98125.22;;;23.33;68.97
27729;BME280;15126;42.186;24.340;2023-08-30T01:03:45;98121.19;;;23.28;69.70
27729;BME280;15126;42.186;24.340;2023-08-30T01:06:12;98127.63;;;23.29;69.40
27729;BME280;15126;42.186;24.340;2023-08-30T01:08:39;98120.41;;;23.28;70.13
27729;BME280;15126;42.186;24.340;2023-08-30T01:11:11;98127.19;;;23.25;70.61
27729;BME280;15126;42.186;24.340;2023-08-30T01:13:50;98130.47;;;23.16;71.10
27729;BME280;15126;42.186;24.340;2023-08-30T01:16:20;98152.38;;;23.21;70.13
27729;BME280;15126;42.186;24.340;2023-08-30T01:18:54;98141.63;;;23.13;69.33
27729;BME280;15126;42.186;24.340;2023-08-30T01:21:38;98147.09;;;23.11;69.08
27729;BME280;15126;42.186;24.340;2023-08-30T01:24:13;98120.34;;;22.88;69.54
27729;BME280;15126;42.186;24.340;2023-08-30T01:26:44;98144.34;;;23.06;69.99
27729;BME280;15126;42.186;24.340;2023-08-30T01:29:15;98145.66;;;23.05;70.14
27729;BME280;15126;42.186;24.340;2023-08-30T01:31:43;98155.91;;;22.95;70.16
27729;BME280;15126;42.186;24.340;2023-08-30T01:34:12;98170.13;;;22.95;69.89
27729;BME280;15126;42.186;24.340;2023-08-30T01:36:40;98160.31;;;22.96;70.13
27729;BME280;15126;42.186;24.340;2023-08-30T01:39:08;98169.38;;;22.94;70.84
27729;BME280;15126;42.186;24.340;2023-08-30T01:41:37;98169.84;;;22.98;70.86
27729;BME280;15126;42.186;24.340;2023-08-30T01:44:05;98170.34;;;22.97;70.01
27729;BME280;15126;42.186;24.340;2023-08-30T01:46:35;98177.13;;;22.94;69.03
27729;BME280;15126;42.186;24.340;2023-08-30T01:49:03;98165.19;;;22.82;68.83
27729;BME280;15126;42.186;24.340;2023-08-30T01:51:31;98166.50;;;22.81;69.14
27729;BME280;15126;42.186;24.340;2023-08-30T01:53:59;98161.78;;;22.84;69.13
27729;BME280;15126;42.186;24.340;2023-08-30T01:56:26;98156.66;;;22.82;69.88
27729;BME280;15126;42.186;24.340;2023-08-30T01:58:53;98157.53;;;22.77;69.75
27729;BME280;15126;42.186;24.340;2023-08-30T02:01:20;98163.22;;;22.77;70.23
27729;BME280;15126;42.186;24.340;2023-08-30T02:03:48;98160.03;;;22.81;69.77
27729;BME280;15126;42.186;24.340;2023-08-30T02:06:21;98154.59;;;22.83;69.90
27729;BME280;15126;42.186;24.340;2023-08-30T02:08:55;98152.06;;;22.79;70.14
27729;BME280;15126;42.186;24.340;2023-08-30T02:11:24;98156.41;;;22.80;70.40
27729;BME280;15126;42.186;24.340;2023-08-30T02:13:53;98158.28;;;22.78;70.66
27729;BME280;15126;42.186;24.340;2023-08-30T02:16:22;98162.75;;;22.73;71.61
27729;BME280;15126;42.186;24.340;2023-08-30T02:18:51;98157.63;;;22.72;71.22
27729;BME280;15126;42.186;24.340;2023-08-30T02:21:18;98157.38;;;22.70;71.78
27729;BME280;15126;42.186;24.340;2023-08-30T02:23:49;98155.09;;;22.68;72.30
27729;BME280;15126;42.186;24.340;2023-08-30T02:26:18;98157.94;;;22.68;71.87
27729;BME280;15126;42.186;24.340;2023-08-30T02:28:45;98151.25;;;22.66;72.11
27729;BME280;15126;42.186;24.340;2023-08-30T02:31:11;98144.09;;;22.59;72.31
27729;BME280;15126;42.186;24.340;2023-08-30T02:33:38;98147.56;;;22.52;72.42
27729;BME280;15126;42.186;24.340;2023-08-30T02:36:07;98151.72;;;22.51;72.37
27729;BME280;15126;42.186;24.340;2023-08-30T02:38:34;98153.25;;;22.52;72.63
27729;BME280;15126;42.186;24.340;2023-08-30T02:41:01;98143.06;;;22.43;72.54
27729;BME280;15126;42.186;24.340;2023-08-30T02:43:28;98156.41;;;22.48;72.72
27729;BME280;15126;42.186;24.340;2023-08-30T02:45:55;98161.66;;;22.44;71.87
27729;BME280;15126;42.186;24.340;2023-08-30T02:48:21;98164.22;;;22.42;72.19
27729;BME280;15126;42.186;24.340;2023-08-30T02:50:48;98168.25;;;22.34;72.23
27729;BME280;15126;42.186;24.340;2023-08-30T02:53:16;98165.66;;;22.36;72.52
27729;BME280;15126;42.186;24.340;2023-08-30T02:55:43;98161.56;;;22.31;72.26
27729;BME280;15126;42.186;24.340;2023-08-30T02:58:10;98167.16;;;22.37;72.31
27729;BME280;15126;42.186;24.340;2023-08-30T03:00:37;98167.72;;;22.35;72.31
27729;BME280;15126;42.186;24.340;2023-08-30T03:03:04;98173.41;;;22.35;72.66
27729;BME280;15126;42.186;24.340;2023-08-30T03:05:31;98173.63;;;22.37;71.93
27729;BME280;15126;42.186;24.340;2023-08-30T03:07:57;98184.69;;;22.41;71.87
27729;BME280;15126;42.186;24.340;2023-08-30T03:10:25;98178.22;;;22.40;72.36
27729;BME280;15126;42.186;24.340;2023-08-30T03:12:52;98181.06;;;22.40;72.50
27729;BME280;15126;42.186;24.340;2023-08-30T03:15:19;98179.53;;;22.39;71.41
27729;BME280;15126;42.186;24.340;2023-08-30T03:17:46;98184.53;;;22.33;71.21
27729;BME280;15126;42.186;24.340;2023-08-30T03:20:13;98181.38;;;22.18;70.82
27729;BME280;15126;42.186;24.340;2023-08-30T03:22:40;98175.09;;;22.07;71.32
27729;BME280;15126;42.186;24.340;2023-08-30T03:25:07;98190.75;;;22.13;71.97
27729;BME280;15126;42.186;24.340;2023-08-30T03:27:36;98168.41;;;22.04;72.12
27729;BME280;15126;42.186;24.340;2023-08-30T03:30:05;98188.13;;;22.15;72.74
27729;BME280;15126;42.186;24.340;2023-08-30T03:32:32;98186.06;;;22.16;72.73
27729;BME280;15126;42.186;24.340;2023-08-30T03:34:59;98176.78;;;22.15;72.43
27729;BME280;15126;42.186;24.340;2023-08-30T03:37:25;98183.16;;;22.21;72.06
27729;BME280;15126;42.186;24.340;2023-08-30T03:39:52;98186.75;;;22.22;72.60
27729;BME280;15126;42.186;24.340;2023-08-30T03:42:19;98190.59;;;22.24;73.26
27729;BME280;15126;42.186;24.340;2023-08-30T03:47:14;98196.28;;;22.24;72.01
27729;BME280;15126;42.186;24.340;2023-08-30T03:49:40;98200.19;;;22.21;72.48
27729;BME280;15126;42.186;24.340;2023-08-30T03:52:07;98202.81;;;22.19;72.64
27729;BME280;15126;42.186;24.340;2023-08-30T03:54:34;98216.25;;;22.19;71.81
27729;BME280;15126;42.186;24.340;2023-08-30T03:57:01;98203.59;;;22.20;72.99
27729;BME280;15126;42.186;24.340;2023-08-30T03:59:28;98202.81;;;22.19;72.72
27729;BME280;15126;42.186;24.340;2023-08-30T04:01:56;98199.13;;;22.24;72.60
27729;BME280;15126;42.186;24.340;2023-08-30T04:04:23;98201.19;;;22.24;73.14
27729;BME280;15126;42.186;24.340;2023-08-30T04:06:50;98195.22;;;22.27;73.52
27729;BME280;15126;42.186;24.340;2023-08-30T04:09:16;98190.31;;;22.28;73.78
27729;BME280;15126;42.186;24.340;2023-08-30T04:11:43;98207.00;;;22.31;73.83
27729;BME280;15126;42.186;24.340;2023-08-30T04:14:10;98209.34;;;22.33;73.36
27729;BME280;15126;42.186;24.340;2023-08-30T04:16:37;98216.78;;;22.36;73.78
27729;BME280;15126;42.186;24.340;2023-08-30T04:19:05;98212.41;;;22.35;73.76
27729;BME280;15126;42.186;24.340;2023-08-30T04:21:32;98210.78;;;22.39;74.11
27729;BME280;15126;42.186;24.340;2023-08-30T04:23:59;98217.47;;;22.42;74.71
27729;BME280;15126;42.186;24.340;2023-08-30T04:26:25;98224.38;;;22.46;73.80
27729;BME280;15126;42.186;24.340;2023-08-30T04:28:52;98216.06;;;22.48;73.26
27729;BME280;15126;42.186;24.340;2023-08-30T04:31:19;98221.25;;;22.50;73.89
27729;BME280;15126;42.186;24.340;2023-08-30T04:33:46;98230.69;;;22.58;73.36
27729;BME280;15126;42.186;24.340;2023-08-30T04:36:14;98233.38;;;22.69;73.29
27729;BME280;15126;42.186;24.340;2023-08-30T04:38:40;98233.19;;;22.80;71.66
27729;BME280;15126;42.186;24.340;2023-08-30T04:41:07;98235.69;;;23.02;71.72
27729;BME280;15126;42.186;24.340;2023-08-30T04:43:34;98225.34;;;23.18;71.47
27729;BME280;15126;42.186;24.340;2023-08-30T04:46:01;98224.69;;;23.25;71.09
27729;BME280;15126;42.186;24.340;2023-08-30T04:48:28;98225.81;;;23.35;70.10
27729;BME280;15126;42.186;24.340;2023-08-30T04:50:59;98221.91;;;23.38;70.27
27729;BME280;15126;42.186;24.340;2023-08-30T04:53:27;98229.91;;;23.40;70.96
27729;BME280;15126;42.186;24.340;2023-08-30T04:55:54;98229.91;;;23.40;70.38
27729;BME280;15126;42.186;24.340;2023-08-30T04:58:21;98225.03;;;23.35;70.03
27729;BME280;15126;42.186;24.340;2023-08-30T05:00:48;98220.47;;;23.32;69.51
27729;BME280;15126;42.186;24.340;2023-08-30T05:03:14;98225.47;;;23.26;69.35
27729;BME280;15126;42.186;24.340;2023-08-30T05:05:45;98226.34;;;23.21;70.44
27729;BME280;15126;42.186;24.340;2023-08-30T05:08:11;98238.16;;;23.25;70.48
27729;BME280;15126;42.186;24.340;2023-08-30T05:10:40;98246.69;;;23.25;71.22
27729;BME280;15126;42.186;24.340;2023-08-30T05:13:08;98238.25;;;23.19;70.48
27729;BME280;15126;42.186;24.340;2023-08-30T05:15:35;98242.00;;;23.27;71.03
27729;BME280;15126;42.186;24.340;2023-08-30T05:18:05;98235.03;;;23.41;72.50
27729;BME280;15126;42.186;24.340;2023-08-30T05:20:32;98230.91;;;23.55;71.76
27729;BME280;15126;42.186;24.340;2023-08-30T05:22:59;98232.88;;;23.74;70.08
27729;BME280;15126;42.186;24.340;2023-08-30T05:25:26;98232.78;;;23.92;69.00
27729;BME280;15126;42.186;24.340;2023-08-30T05:27:54;98233.75;;;24.08;69.10
27729;BME280;15126;42.186;24.340;2023-08-30T05:30:20;98235.97;;;24.15;67.53
27729;BME280;15126;42.186;24.340;2023-08-30T05:32:47;98236.47;;;24.40;69.04
27729;BME280;15126;42.186;24.340;2023-08-30T05:35:14;98241.56;;;24.54;67.44
27729;BME280;15126;42.186;24.340;2023-08-30T05:37:41;98246.16;;;24.70;66.10
27729;BME280;15126;42.186;24.340;2023-08-30T05:40:09;98243.81;;;24.82;65.23
27729;BME280;15126;42.186;24.340;2023-08-30T05:42:36;98242.16;;;24.87;65.50
27729;BME280;15126;42.186;24.340;2023-08-30T05:45:05;98257.53;;;25.04;64.31
27729;BME280;15126;42.186;24.340;2023-08-30T05:47:32;98246.97;;;25.12;64.23
27729;BME280;15126;42.186;24.340;2023-08-30T05:49:59;98240.16;;;25.15;64.38
27729;BME280;15126;42.186;24.340;2023-08-30T05:52:26;98258.19;;;25.31;64.60
27729;BME280;15126;42.186;24.340;2023-08-30T05:54:53;98258.09;;;25.44;64.08
27729;BME280;15126;42.186;24.340;2023-08-30T05:57:20;98261.13;;;25.59;63.69
27729;BME280;15126;42.186;24.340;2023-08-30T05:59:49;98270.91;;;25.71;64.51
27729;BME280;15126;42.186;24.340;2023-08-30T06:02:17;98261.28;;;25.82;63.30
27729;BME280;15126;42.186;24.340;2023-08-30T06:04:44;98257.50;;;25.87;62.32
27729;BME280;15126;42.186;24.340;2023-08-30T06:07:10;98258.72;;;25.99;61.82
27729;BME280;15126;42.186;24.340;2023-08-30T06:09:37;98268.09;;;26.07;61.47
27729;BME280;15126;42.186;24.340;2023-08-30T06:12:05;98266.88;;;26.23;62.44
27729;BME280;15126;42.186;24.340;2023-08-30T06:14:32;98271.31;;;26.32;61.57
27729;BME280;15126;42.186;24.340;2023-08-30T06:16:58;98271.41;;;26.47;60.59
27729;BME280;15126;42.186;24.340;2023-08-30T06:19:26;98272.78;;;26.61;60.61
27729;BME280;15126;42.186;24.340;2023-08-30T06:21:53;98271.66;;;26.72;60.92
27729;BME280;15126;42.186;24.340;2023-08-30T06:24:20;98274.25;;;26.90;59.05
27729;BME280;15126;42.186;24.340;2023-08-30T06:26:48;98263.38;;;26.96;58.20
27729;BME280;15126;42.186;24.340;2023-08-30T06:29:15;98254.41;;;27.07;58.75
27729;BME280;15126;42.186;24.340;2023-08-30T06:31:42;98253.09;;;27.24;59.29
27729;BME280;15126;42.186;24.340;2023-08-30T06:34:09;98257.31;;;27.38;59.92
27729;BME280;15126;42.186;24.340;2023-08-30T06:36:37;98258.69;;;27.52;57.08
27729;BME280;15126;42.186;24.340;2023-08-30T06:39:04;98262.72;;;27.64;58.82
27729;BME280;15126;42.186;24.340;2023-08-30T06:41:31;98263.28;;;27.77;57.83
27729;BME280;15126;42.186;24.340;2023-08-30T06:43:58;98267.63;;;27.86;57.31
27729;BME280;15126;42.186;24.340;2023-08-30T06:46:24;98269.94;;;27.95;58.55
27729;BME280;15126;42.186;24.340;2023-08-30T06:48:51;98277.56;;;28.08;58.12
27729;BME280;15126;42.186;24.340;2023-08-30T06:51:18;98279.09;;;28.16;56.56
27729;BME280;15126;42.186;24.340;2023-08-30T06:53:46;98275.03;;;28.34;56.30
27729;BME280;15126;42.186;24.340;2023-08-30T06:56:13;98274.03;;;28.47;55.70
27729;BME280;15126;42.186;24.340;2023-08-30T06:58:40;98269.78;;;28.63;55.66
27729;BME280;15126;42.186;24.340;2023-08-30T07:01:07;98275.03;;;28.82;55.15
27729;BME280;15126;42.186;24.340;2023-08-30T07:03:33;98269.22;;;28.97;55.50
27729;BME280;15126;42.186;24.340;2023-08-30T07:06:00;98248.53;;;28.99;52.96
27729;BME280;15126;42.186;24.340;2023-08-30T07:08:27;98275.72;;;29.30;53.99
27729;BME280;15126;42.186;24.340;2023-08-30T07:10:56;98277.34;;;29.48;53.55
27729;BME280;15126;42.186;24.340;2023-08-30T07:13:22;98278.56;;;29.62;51.95
27729;BME280;15126;42.186;24.340;2023-08-30T07:15:49;98269.03;;;29.77;50.96
27729;BME280;15126;42.186;24.340;2023-08-30T07:18:16;98271.84;;;29.84;51.82
27729;BME280;15126;42.186;24.340;2023-08-30T07:20:43;98278.28;;;29.92;49.64
27729;BME280;15126;42.186;24.340;2023-08-30T07:23:10;98269.88;;;29.94;49.63
27729;BME280;15126;42.186;24.340;2023-08-30T07:25:37;98267.00;;;29.94;50.64
27729;BME280;15126;42.186;24.340;2023-08-30T07:28:05;98258.28;;;30.02;49.34
27729;BME280;15126;42.186;24.340;2023-08-30T07:30:32;98268.00;;;30.06;47.58
27729;BME280;15126;42.186;24.340;2023-08-30T07:33:00;98264.97;;;30.04;50.69
27729;BME280;15126;42.186;24.340;2023-08-30T07:35:27;98263.38;;;30.11;50.25
27729;BME280;15126;42.186;24.340;2023-08-30T07:37:54;98273.34;;;30.10;48.53
27729;BME280;15126;42.186;24.340;2023-08-30T07:40:21;98277.91;;;30.13;49.01
27729;BME280;15126;42.186;24.340;2023-08-30T07:42:51;98278.44;;;30.19;47.81
27729;BME280;15126;42.186;24.340;2023-08-30T07:45:19;98283.94;;;30.25;49.17
27729;BME280;15126;42.186;24.340;2023-08-30T07:47:46;98286.38;;;30.28;48.53
27729;BME280;15126;42.186;24.340;2023-08-30T07:50:13;98287.66;;;30.35;48.21
27729;BME280;15126;42.186;24.340;2023-08-30T07:52:40;98275.16;;;30.40;47.30
27729;BME280;15126;42.186;24.340;2023-08-30T07:55:07;98255.94;;;30.42;47.78
27729;BME280;15126;42.186;24.340;2023-08-30T07:57:34;98259.06;;;30.54;49.46
27729;BME280;15126;42.186;24.340;2023-08-30T08:00:01;98265.72;;;30.74;47.67
27729;BME280;15126;42.186;24.340;2023-08-30T08:02:31;98274.75;;;30.87;47.62
27729;BME280;15126;42.186;24.340;2023-08-30T08:04:57;98274.84;;;30.97;48.39
27729;BME280;15126;42.186;24.340;2023-08-30T08:07:24;98266.69;;;31.03;46.43
27729;BME280;15126;42.186;24.340;2023-08-30T08:09:51;98270.38;;;31.13;48.08
27729;BME280;15126;42.186;24.340;2023-08-30T08:12:18;98268.25;;;31.13;47.53
27729;BME280;15126;42.186;24.340;2023-08-30T08:14:45;98271.06;;;31.04;46.22
27729;BME280;15126;42.186;24.340;2023-08-30T08:17:12;98269.41;;;31.01;46.62
27729;BME280;15126;42.186;24.340;2023-08-30T08:19:40;98264.34;;;30.92;47.22
27729;BME280;15126;42.186;24.340;2023-08-30T08:22:08;98269.44;;;30.84;45.28
27729;BME280;15126;42.186;24.340;2023-08-30T08:24:35;98265.50;;;30.89;48.88
27729;BME280;15126;42.186;24.340;2023-08-30T08:27:04;98260.00;;;30.83;48.17
27729;BME280;15126;42.186;24.340;2023-08-30T08:29:31;98271.69;;;30.85;46.99
27729;BME280;15126;42.186;24.340;2023-08-30T08:31:58;98267.72;;;30.81;48.10
27729;BME280;15126;42.186;24.340;2023-08-30T08:34:25;98254.41;;;30.85;48.00
27729;BME280;15126;42.186;24.340;2023-08-30T08:36:54;98260.69;;;30.91;46.26
27729;BME280;15126;42.186;24.340;2023-08-30T08:39:20;98252.03;;;30.91;47.61
27729;BME280;15126;42.186;24.340;2023-08-30T08:41:48;98255.88;;;30.94;47.11
27729;BME280;15126;42.186;24.340;2023-08-30T08:44:18;98247.06;;;30.92;47.52
27729;BME280;15126;42.186;24.340;2023-08-30T08:46:46;98252.56;;;30.97;46.86
27729;BME280;15126;42.186;24.340;2023-08-30T08:49:14;98245.09;;;30.94;47.39
27729;BME280;15126;42.186;24.340;2023-08-30T08:51:42;98247.38;;;30.96;45.18
27729;BME280;15126;42.186;24.340;2023-08-30T08:54:12;98248.91;;;30.97;46.84
27729;BME280;15126;42.186;24.340;2023-08-30T08:56:39;98247.72;;;31.00;46.93
27729;BME280;15126;42.186;24.340;2023-08-30T08:59:06;98244.88;;;31.09;46.87
27729;BME280;15126;42.186;24.340;2023-08-30T09:01:35;98238.69;;;31.13;45.20
27729;BME280;15126;42.186;24.340;2023-08-30T09:04:05;98231.56;;;31.14;47.19
27729;BME280;15126;42.186;24.340;2023-08-30T09:06:33;98245.84;;;31.21;46.78
27729;BME280;15126;42.186;24.340;2023-08-30T09:09:00;98234.75;;;31.18;46.72
27729;BME280;15126;42.186;24.340;2023-08-30T09:11:30;98233.63;;;31.31;46.71
27729;BME280;15126;42.186;24.340;2023-08-30T09:13:57;98227.56;;;31.36;44.43
27729;BME280;15126;42.186;24.340;2023-08-30T09:16:24;98228.31;;;31.37;45.72
27729;BME280;15126;42.186;24.340;2023-08-30T09:18:58;98225.28;;;31.35;46.90
27729;BME280;15126;42.186;24.340;2023-08-30T09:25:08;98225.97;;;31.16;46.10
27729;BME280;15126;42.186;24.340;2023-08-30T09:27:40;98208.69;;;31.16;45.97
27729;BME280;15126;42.186;24.340;2023-08-30T09:30:08;98196.06;;;31.11;45.82
27729;BME280;15126;42.186;24.340;2023-08-30T09:32:40;98197.47;;;31.20;45.71
27729;BME280;15126;42.186;24.340;2023-08-30T09:35:08;98178.19;;;31.13;46.28
27729;BME280;15126;42.186;24.340;2023-08-30T09:37:35;98197.50;;;31.30;45.94
27729;BME280;15126;42.186;24.340;2023-08-30T09:40:03;98193.72;;;31.37;47.37
27729;BME280;15126;42.186;24.340;2023-08-30T09:42:31;98206.50;;;31.43;47.04
27729;BME280;15126;42.186;24.340;2023-08-30T09:44:59;98205.53;;;31.58;46.29
27729;BME280;15126;42.186;24.340;2023-08-30T09:47:26;98201.88;;;31.67;45.49
27729;BME280;15126;42.186;24.340;2023-08-30T09:49:55;98204.00;;;31.66;44.04
27729;BME280;15126;42.186;24.340;2023-08-30T09:52:24;98205.25;;;31.73;46.13
27729;BME280;15126;42.186;24.340;2023-08-30T09:54:51;98197.34;;;31.73;44.36
27729;BME280;15126;42.186;24.340;2023-08-30T09:57:19;98191.13;;;31.77;45.21
27729;BME280;15126;42.186;24.340;2023-08-30T09:59:48;98192.50;;;31.76;46.08
27729;BME280;15126;42.186;24.340;2023-08-30T10:02:17;98188.88;;;31.85;46.34
27729;BME280;15126;42.186;24.340;2023-08-30T10:04:45;98183.09;;;31.95;44.76
27729;BME280;15126;42.186;24.340;2023-08-30T10:07:13;98185.72;;;32.00;44.89
27729;BME280;15126;42.186;24.340;2023-08-30T10:09:41;98184.78;;;32.07;43.88
27729;BME280;15126;42.186;24.340;2023-08-30T10:12:10;98183.28;;;32.16;45.31
27729;BME280;15126;42.186;24.340;2023-08-30T10:14:37;98176.91;;;32.27;45.14
27729;BME280;15126;42.186;24.340;2023-08-30T10:17:05;98177.94;;;32.41;44.55
27729;BME280;15126;42.186;24.340;2023-08-30T10:19:37;98172.63;;;32.47;43.95
27729;BME280;15126;42.186;24.340;2023-08-30T10:22:06;98180.38;;;32.54;43.34
27729;BME280;15126;42.186;24.340;2023-08-30T10:24:39;98158.47;;;32.70;43.44
27729;BME280;15126;42.186;24.340;2023-08-30T10:27:08;98163.13;;;32.85;43.11
27729;BME280;15126;42.186;24.340;2023-08-30T10:29:38;98163.00;;;32.83;42.91
27729;BME280;15126;42.186;24.340;2023-08-30T10:32:06;98154.41;;;32.94;42.21
27729;BME280;15126;42.186;24.340;2023-08-30T10:34:36;98152.91;;;32.93;42.92
27729;BME280;15126;42.186;24.340;2023-08-30T10:37:06;98164.19;;;32.89;40.77
27729;BME280;15126;42.186;24.340;2023-08-30T10:39:34;98152.34;;;32.85;42.18
27729;BME280;15126;42.186;24.340;2023-08-30T10:42:08;98153.72;;;32.84;39.92
27729;BME280;15126;42.186;24.340;2023-08-30T10:44:37;98137.97;;;32.97;42.05
27729;BME280;15126;42.186;24.340;2023-08-30T10:47:18;98137.38;;;32.98;42.35
27729;BME280;15126;42.186;24.340;2023-08-30T10:49:48;98138.88;;;32.99;42.46
27729;BME280;15126;42.186;24.340;2023-08-30T10:52:15;98133.88;;;33.00;41.64
27729;BME280;15126;42.186;24.340;2023-08-30T10:54:52;98133.41;;;33.04;41.75
27729;BME280;15126;42.186;24.340;2023-08-30T10:57:20;98137.53;;;33.01;41.79
27729;BME280;15126;42.186;24.340;2023-08-30T11:00:07;98135.72;;;32.95;39.95
27729;BME280;15126;42.186;24.340;2023-08-30T11:02:35;98130.69;;;33.06;40.09
27729;BME280;15126;42.186;24.340;2023-08-30T11:05:06;98111.25;;;32.96;40.99
27729;BME280;15126;42.186;24.340;2023-08-30T11:07:33;98137.75;;;33.24;40.64
27729;BME280;15126;42.186;24.340;2023-08-30T11:10:04;98137.47;;;33.20;40.09
27729;BME280;15126;42.186;24.340;2023-08-30T11:12:31;98140.81;;;33.16;39.41
27729;BME280;15126;42.186;24.340;2023-08-30T11:14:58;98143.38;;;33.22;39.76
27729;BME280;15126;42.186;24.340;2023-08-30T11:17:26;98138.59;;;33.36;40.46
27729;BME280;15126;42.186;24.340;2023-08-30T11:19:57;98124.22;;;33.47;41.79
27729;BME280;15126;42.186;24.340;2023-08-30T11:22:24;98119.56;;;33.64;42.23
27729;BME280;15126;42.186;24.340;2023-08-30T11:24:51;98124.72;;;33.65;39.86
27729;BME280;15126;42.186;24.340;2023-08-30T11:27:20;98127.00;;;33.67;38.06
27729;BME280;15126;42.186;24.340;2023-08-30T11:29:47;98131.91;;;33.64;38.53
27729;BME280;15126;42.186;24.340;2023-08-30T11:32:13;98129.13;;;33.66;38.54
27729;BME280;15126;42.186;24.340;2023-08-30T11:34:40;98122.31;;;33.62;36.57
27729;BME280;15126;42.186;24.340;2023-08-30T11:37:07;98115.97;;;33.53;37.89
27729;BME280;15126;42.186;24.340;2023-08-30T11:39:35;98107.63;;;33.48;38.47
27729;BME280;15126;42.186;24.340;2023-08-30T11:42:03;98096.75;;;33.37;38.55
27729;BME280;15126;42.186;24.340;2023-08-30T11:44:32;98099.91;;;33.41;38.82
27729;BME280;15126;42.186;24.340;2023-08-30T11:47:00;98105.06;;;33.42;36.34
27729;BME280;15126;42.186;24.340;2023-08-30T11:49:27;98103.22;;;33.47;36.65
27729;BME280;15126;42.186;24.340;2023-08-30T11:51:55;98099.41;;;33.44;36.97
27729;BME280;15126;42.186;24.340;2023-08-30T11:54:24;98089.22;;;33.43;36.19
27729;BME280;15126;42.186;24.340;2023-08-30T11:56:51;98097.56;;;33.49;36.79
27729;BME280;15126;42.186;24.340;2023-08-30T11:59:19;98095.84;;;33.55;37.57
27729;BME280;15126;42.186;24.340;2023-08-30T12:01:47;98097.75;;;33.41;37.00
27729;BME280;15126;42.186;24.340;2023-08-30T12:04:15;98093.88;;;33.58;37.62
27729;BME280;15126;42.186;24.340;2023-08-30T12:06:44;98091.25;;;33.62;37.62
27729;BME280;15126;42.186;24.340;2023-08-30T12:09:14;98085.72;;;33.45;36.32
27729;BME280;15126;42.186;24.340;2023-08-30T12:11:41;98068.78;;;33.30;37.56
27729;BME280;15126;42.186;24.340;2023-08-30T12:14:07;98070.72;;;33.37;38.00
27729;BME280;15126;42.186;24.340;2023-08-30T12:16:34;98080.53;;;33.43;37.47
27729;BME280;15126;42.186;24.340;2023-08-30T12:19:09;98081.06;;;33.40;37.77
27729;BME280;15126;42.186;24.340;2023-08-30T12:21:42;98066.16;;;33.34;37.31
27729;BME280;15126;42.186;24.340;2023-08-30T12:24:10;98070.50;;;33.44;37.32
27729;BME280;15126;42.186;24.340;2023-08-30T12:26:36;98063.97;;;33.44;37.59
27729;BME280;15126;42.186;24.340;2023-08-30T12:29:04;98064.38;;;33.50;36.56
27729;BME280;15126;42.186;24.340;2023-08-30T12:31:32;98057.97;;;33.51;36.27
27729;BME280;15126;42.186;24.340;2023-08-30T12:33:59;98059.44;;;33.62;37.83
27729;BME280;15126;42.186;24.340;2023-08-30T12:36:27;98055.06;;;33.51;37.56
27729;BME280;15126;42.186;24.340;2023-08-30T12:38:54;98048.81;;;33.55;39.05
27729;BME280;15126;42.186;24.340;2023-08-30T12:41:21;98051.13;;;33.57;37.41
27729;BME280;15126;42.186;24.340;2023-08-30T12:43:49;98042.91;;;33.53;38.52
27729;BME280;15126;42.186;24.340;2023-08-30T12:46:16;98047.59;;;33.58;38.84
27729;BME280;15126;42.186;24.340;2023-08-30T12:48:42;98039.47;;;33.66;38.75
27729;BME280;15126;42.186;24.340;2023-08-30T12:51:09;98042.59;;;33.70;38.54
27729;BME280;15126;42.186;24.340;2023-08-30T12:53:37;98036.09;;;33.70;36.97
27729;BME280;15126;42.186;24.340;2023-08-30T12:56:04;98031.78;;;33.71;37.42
27729;BME280;15126;42.186;24.340;2023-08-30T12:58:31;98035.38;;;33.81;36.74
27729;BME280;15126;42.186;24.340;2023-08-30T13:00:58;98037.59;;;33.71;36.35